KQBF/QBF METAR and TAF weather

Enter ICAO airport designator
Station Type Date Time Source
KQBF METAR 2019/04/18 13:56 UTC NOAA

KQBF 181356Z AUTO 00000KT 9000 HZ FEW240 40/09 A2975 RMK AO2 SLP026 WND DATA ESTMD T04040088


Station Type Date Time Source
KQBF Decoded METAR 2019/04/18 13:56 UTC NOAA

Station name not available
Apr 18, 2019 - 09:56 AM EDT / 2019.04.18 1356 UTC
Wind: Calm:0
Visibility: 5 mile(s):0
Sky conditions: mostly clear
Weather: haze
Temperature: 104.7 F (40.4 C)
Dew Point: 47.8 F (8.8 C)
Relative Humidity: 15%
Pressure (altimeter): 29.75 in. Hg (1007 hPa)
ob: KQBF 181356Z AUTO 00000KT 9000 HZ FEW240 40/09 A2975 RMK AO2 SLP026 WND DATA ESTMD T04040088
cycle: 14

Station Type Date Time Source
KQBF TAF 2009/08/24 17:21 UTC NOAA

TAF
AMD KQBF 241721Z 241313 06010G20KT 9999 FEW025 SCT160 BKN230 QNH2915INS
BECMG 2223 100020G25KT 9000 -SHRA SCT009 BKN025 OVC035 610505 QNH2910INS
TEMPO 0209 10025G35KT BKN010
BECMG 1213 09020G25KT 9000 -SHRA SCT015 BKN035 OVC050 610606 T11/15Z T10/00Z
AMD 241744 LIMITED METWATCH 2417 TIL 2507

Example: see airport list